Terminal Aerodrome Forecast
Issued by NWS

Home | Current Version | Previous Version | Graphics & Text | Print | Product List | Glossary On
Versions: 1 2 3 4 5 6 7 8 9 10 11 12 13 14 15
000
FTUS43 KICT 251623 AAA
TAFRSL
TAF AMD
KRSL 251623Z 2516/2612 35020G26KT P6SM BKN025
     FM252300 36015G22KT P6SM VCSH OVC025
     FM260400 35015G23KT P6SM VCSH OVC015
     FM260600 35016G24KT P6SM OVC015=

USA.gov is the U.S. government's official web portal to all federal, state and local government web resources and services.